sensor_id;sensor_type;location;lat;lon;timestamp;temperature;humidity
77100;SHT31;66602;48.922;2.414;2023-07-31T00:02:02;19.73;68.96
77100;SHT31;66602;48.922;2.414;2023-07-31T00:04:27;19.74;68.94
77100;SHT31;66602;48.922;2.414;2023-07-31T00:06:53;19.77;68.96
77100;SHT31;66602;48.922;2.414;2023-07-31T00:09:18;19.78;68.81
77100;SHT31;66602;48.922;2.414;2023-07-31T00:11:44;19.73;68.81
77100;SHT31;66602;48.922;2.414;2023-07-31T00:14:09;19.71;68.88
77100;SHT31;66602;48.922;2.414;2023-07-31T00:16:35;19.71;68.94
77100;SHT31;66602;48.922;2.414;2023-07-31T00:19:00;19.74;68.75
77100;SHT31;66602;48.922;2.414;2023-07-31T00:21:26;19.71;68.98
77100;SHT31;66602;48.922;2.414;2023-07-31T00:23:51;19.65;69.33
77100;SHT31;66602;48.922;2.414;2023-07-31T00:26:17;19.64;69.21
77100;SHT31;66602;48.922;2.414;2023-07-31T00:28:42;19.61;69.07
77100;SHT31;66602;48.922;2.414;2023-07-31T00:31:08;19.61;69.19
77100;SHT31;66602;48.922;2.414;2023-07-31T00:33:35;19.61;69.19
77100;SHT31;66602;48.922;2.414;2023-07-31T00:36:02;19.58;69.49
77100;SHT31;66602;48.922;2.414;2023-07-31T00:38:27;19.53;69.53
77100;SHT31;66602;48.922;2.414;2023-07-31T00:40:53;19.57;69.57
77100;SHT31;66602;48.922;2.414;2023-07-31T00:43:18;19.54;69.79
77100;SHT31;66602;48.922;2.414;2023-07-31T00:45:44;19.54;69.62
77100;SHT31;66602;48.922;2.414;2023-07-31T00:48:09;19.51;69.82
77100;SHT31;66602;48.922;2.414;2023-07-31T00:50:35;19.49;70.08
77100;SHT31;66602;48.922;2.414;2023-07-31T00:53:01;19.46;69.98
77100;SHT31;66602;48.922;2.414;2023-07-31T00:55:27;19.44;70.08
77100;SHT31;66602;48.922;2.414;2023-07-31T00:57:52;19.40;70.27
77100;SHT31;66602;48.922;2.414;2023-07-31T01:00:21;19.34;70.43
77100;SHT31;66602;48.922;2.414;2023-07-31T01:02:48;19.33;70.45
77100;SHT31;66602;48.922;2.414;2023-07-31T01:05:13;19.33;70.41
77100;SHT31;66602;48.922;2.414;2023-07-31T01:07:45;19.46;69.62
77100;SHT31;66602;48.922;2.414;2023-07-31T01:10:37;19.53;69.32
77100;SHT31;66602;48.922;2.414;2023-07-31T01:13:06;19.57;69.18
77100;SHT31;66602;48.922;2.414;2023-07-31T01:15:31;19.61;68.90
77100;SHT31;66602;48.922;2.414;2023-07-31T01:17:57;19.61;68.85
77100;SHT31;66602;48.922;2.414;2023-07-31T01:20:26;19.63;68.74
77100;SHT31;66602;48.922;2.414;2023-07-31T01:31:09;19.53;68.87
77100;SHT31;66602;48.922;2.414;2023-07-31T01:33:36;19.49;68.82
77100;SHT31;66602;48.922;2.414;2023-07-31T01:36:03;19.43;69.18
77100;SHT31;66602;48.922;2.414;2023-07-31T01:38:29;19.36;69.42
77100;SHT31;66602;48.922;2.414;2023-07-31T01:40:54;19.31;69.67
77100;SHT31;66602;48.922;2.414;2023-07-31T01:43:20;19.30;69.49
77100;SHT31;66602;48.922;2.414;2023-07-31T01:45:45;19.28;69.36
77100;SHT31;66602;48.922;2.414;2023-07-31T01:48:11;19.38;69.01
77100;SHT31;66602;48.922;2.414;2023-07-31T01:50:36;19.38;68.77
77100;SHT31;66602;48.922;2.414;2023-07-31T01:53:02;19.38;68.59
77100;SHT31;66602;48.922;2.414;2023-07-31T01:55:27;19.34;68.84
77100;SHT31;66602;48.922;2.414;2023-07-31T01:57:53;19.30;69.08
77100;SHT31;66602;48.922;2.414;2023-07-31T02:00:19;19.28;68.92
77100;SHT31;66602;48.922;2.414;2023-07-31T02:02:44;19.28;68.65
77100;SHT31;66602;48.922;2.414;2023-07-31T02:05:10;19.27;68.67
77100;SHT31;66602;48.922;2.414;2023-07-31T02:07:35;19.23;68.83
77100;SHT31;66602;48.922;2.414;2023-07-31T02:10:01;19.24;68.87
77100;SHT31;66602;48.922;2.414;2023-07-31T02:12:26;19.31;68.19
77100;SHT31;66602;48.922;2.414;2023-07-31T02:14:52;19.31;67.90
77100;SHT31;66602;48.922;2.414;2023-07-31T02:17:17;19.34;67.37
77100;SHT31;66602;48.922;2.414;2023-07-31T02:19:43;19.31;67.52
77100;SHT31;66602;48.922;2.414;2023-07-31T02:22:08;19.27;67.63
77100;SHT31;66602;48.922;2.414;2023-07-31T02:24:34;19.23;67.64
77100;SHT31;66602;48.922;2.414;2023-07-31T02:26:59;19.20;67.92
77100;SHT31;66602;48.922;2.414;2023-07-31T02:29:25;19.17;67.64
77100;SHT31;66602;48.922;2.414;2023-07-31T02:31:50;19.15;67.75
77100;SHT31;66602;48.922;2.414;2023-07-31T02:34:16;19.13;67.83
77100;SHT31;66602;48.922;2.414;2023-07-31T02:36:42;19.13;67.57
77100;SHT31;66602;48.922;2.414;2023-07-31T02:39:07;19.13;67.75
77100;SHT31;66602;48.922;2.414;2023-07-31T02:41:32;19.13;67.52
77100;SHT31;66602;48.922;2.414;2023-07-31T02:43:58;19.12;67.40
77100;SHT31;66602;48.922;2.414;2023-07-31T02:46:23;19.07;67.51
77100;SHT31;66602;48.922;2.414;2023-07-31T02:48:50;19.02;67.58
77100;SHT31;66602;48.922;2.414;2023-07-31T02:51:16;18.92;67.85
77100;SHT31;66602;48.922;2.414;2023-07-31T02:53:42;18.92;67.85
77100;SHT31;66602;48.922;2.414;2023-07-31T02:56:07;18.84;67.97
77100;SHT31;66602;48.922;2.414;2023-07-31T02:58:33;18.84;67.81
77100;SHT31;66602;48.922;2.414;2023-07-31T03:00:59;18.75;68.12
77100;SHT31;66602;48.922;2.414;2023-07-31T03:03:24;18.71;67.39
77100;SHT31;66602;48.922;2.414;2023-07-31T03:05:50;18.62;68.16
77100;SHT31;66602;48.922;2.414;2023-07-31T03:08:15;18.57;68.40
77100;SHT31;66602;48.922;2.414;2023-07-31T03:10:41;18.55;68.36
77100;SHT31;66602;48.922;2.414;2023-07-31T03:13:06;18.54;67.97
77100;SHT31;66602;48.922;2.414;2023-07-31T03:15:32;18.54;67.89
77100;SHT31;66602;48.922;2.414;2023-07-31T03:17:58;18.54;67.91
77100;SHT31;66602;48.922;2.414;2023-07-31T03:20:24;18.59;67.66
77100;SHT31;66602;48.922;2.414;2023-07-31T03:22:49;18.62;67.89
77100;SHT31;66602;48.922;2.414;2023-07-31T03:25:15;18.59;67.58
77100;SHT31;66602;48.922;2.414;2023-07-31T03:27:40;18.62;67.28
77100;SHT31;66602;48.922;2.414;2023-07-31T03:30:06;18.71;67.06
77100;SHT31;66602;48.922;2.414;2023-07-31T03:32:32;18.73;66.67
77100;SHT31;66602;48.922;2.414;2023-07-31T03:34:58;18.71;67.01
77100;SHT31;66602;48.922;2.414;2023-07-31T03:37:23;18.72;66.91
77100;SHT31;66602;48.922;2.414;2023-07-31T03:39:49;18.69;67.31
77100;SHT31;66602;48.922;2.414;2023-07-31T03:42:14;18.71;67.28
77100;SHT31;66602;48.922;2.414;2023-07-31T03:44:40;18.66;67.44
77100;SHT31;66602;48.922;2.414;2023-07-31T03:47:06;18.65;67.62
77100;SHT31;66602;48.922;2.414;2023-07-31T03:49:31;18.59;67.63
77100;SHT31;66602;48.922;2.414;2023-07-31T03:51:57;18.61;67.30
77100;SHT31;66602;48.922;2.414;2023-07-31T03:54:23;18.64;67.41
77100;SHT31;66602;48.922;2.414;2023-07-31T03:56:49;18.61;67.46
77100;SHT31;66602;48.922;2.414;2023-07-31T03:59:14;18.62;67.29
77100;SHT31;66602;48.922;2.414;2023-07-31T04:01:40;18.62;66.21
77100;SHT31;66602;48.922;2.414;2023-07-31T04:04:05;18.65;66.32
77100;SHT31;66602;48.922;2.414;2023-07-31T04:06:31;18.58;66.61
77100;SHT31;66602;48.922;2.414;2023-07-31T04:08:56;18.61;66.06
77100;SHT31;66602;48.922;2.414;2023-07-31T04:11:22;18.58;66.36
77100;SHT31;66602;48.922;2.414;2023-07-31T04:13:47;18.57;66.29
77100;SHT31;66602;48.922;2.414;2023-07-31T04:16:13;18.55;65.47
77100;SHT31;66602;48.922;2.414;2023-07-31T04:18:39;18.57;64.88
77100;SHT31;66602;48.922;2.414;2023-07-31T04:21:04;18.57;65.16
77100;SHT31;66602;48.922;2.414;2023-07-31T04:23:30;18.57;65.41
77100;SHT31;66602;48.922;2.414;2023-07-31T04:25:56;18.55;65.60
77100;SHT31;66602;48.922;2.414;2023-07-31T04:28:22;18.57;65.70
77100;SHT31;66602;48.922;2.414;2023-07-31T04:30:47;18.51;65.75
77100;SHT31;66602;48.922;2.414;2023-07-31T04:33:13;18.54;65.42
77100;SHT31;66602;48.922;2.414;2023-07-31T04:35:38;18.54;65.67
77100;SHT31;66602;48.922;2.414;2023-07-31T04:38:04;18.57;65.45
77100;SHT31;66602;48.922;2.414;2023-07-31T04:40:30;18.57;65.43
77100;SHT31;66602;48.922;2.414;2023-07-31T04:42:55;18.57;65.37
77100;SHT31;66602;48.922;2.414;2023-07-31T04:45:21;18.54;65.45
77100;SHT31;66602;48.922;2.414;2023-07-31T04:47:46;18.57;65.45
77100;SHT31;66602;48.922;2.414;2023-07-31T04:50:12;18.54;65.39
77100;SHT31;66602;48.922;2.414;2023-07-31T04:52:37;18.47;65.60
77100;SHT31;66602;48.922;2.414;2023-07-31T04:55:03;18.47;65.89
77100;SHT31;66602;48.922;2.414;2023-07-31T04:57:29;18.45;66.16
77100;SHT31;66602;48.922;2.414;2023-07-31T04:59:54;18.49;66.32
77100;SHT31;66602;48.922;2.414;2023-07-31T05:02:20;18.49;66.76
77100;SHT31;66602;48.922;2.414;2023-07-31T05:04:46;18.26;68.94
77100;SHT31;66602;48.922;2.414;2023-07-31T05:07:12;17.83;71.76
77100;SHT31;66602;48.922;2.414;2023-07-31T05:09:38;17.52;73.10
77100;SHT31;66602;48.922;2.414;2023-07-31T05:12:05;17.50;72.61
77100;SHT31;66602;48.922;2.414;2023-07-31T05:14:31;17.50;73.16
77100;SHT31;66602;48.922;2.414;2023-07-31T05:16:57;17.59;72.18
77100;SHT31;66602;48.922;2.414;2023-07-31T05:19:22;17.69;72.23
77100;SHT31;66602;48.922;2.414;2023-07-31T05:21:48;17.76;72.30
77100;SHT31;66602;48.922;2.414;2023-07-31T05:24:14;17.83;72.00
77100;SHT31;66602;48.922;2.414;2023-07-31T05:26:39;17.87;71.75
77100;SHT31;66602;48.922;2.414;2023-07-31T05:29:05;17.93;71.87
77100;SHT31;66602;48.922;2.414;2023-07-31T05:31:30;17.97;71.46
77100;SHT31;66602;48.922;2.414;2023-07-31T05:33:57;18.03;71.84
77100;SHT31;66602;48.922;2.414;2023-07-31T05:36:23;18.10;71.54
77100;SHT31;66602;48.922;2.414;2023-07-31T05:38:49;18.14;70.91
77100;SHT31;66602;48.922;2.414;2023-07-31T05:41:14;18.21;71.12
77100;SHT31;66602;48.922;2.414;2023-07-31T05:43:40;18.20;71.37
77100;SHT31;66602;48.922;2.414;2023-07-31T05:46:06;18.13;72.91
77100;SHT31;66602;48.922;2.414;2023-07-31T05:48:32;18.06;73.53
77100;SHT31;66602;48.922;2.414;2023-07-31T05:50:59;18.06;73.39
77100;SHT31;66602;48.922;2.414;2023-07-31T05:53:25;18.24;72.92
77100;SHT31;66602;48.922;2.414;2023-07-31T05:55:50;18.43;72.25
77100;SHT31;66602;48.922;2.414;2023-07-31T05:58:16;18.49;71.92
77100;SHT31;66602;48.922;2.414;2023-07-31T06:00:41;18.59;72.02
77100;SHT31;66602;48.922;2.414;2023-07-31T06:03:07;18.58;71.86
77100;SHT31;66602;48.922;2.414;2023-07-31T06:05:32;18.59;71.51
77100;SHT31;66602;48.922;2.414;2023-07-31T06:07:58;18.58;71.78
77100;SHT31;66602;48.922;2.414;2023-07-31T06:10:23;18.59;71.89
77100;SHT31;66602;48.922;2.414;2023-07-31T06:12:49;18.58;71.84
77100;SHT31;66602;48.922;2.414;2023-07-31T06:15:14;18.72;71.44
77100;SHT31;66602;48.922;2.414;2023-07-31T06:17:40;18.84;71.23
77100;SHT31;66602;48.922;2.414;2023-07-31T06:20:06;18.88;71.25
77100;SHT31;66602;48.922;2.414;2023-07-31T06:22:32;18.78;71.52
77100;SHT31;66602;48.922;2.414;2023-07-31T06:24:58;18.96;71.12
77100;SHT31;66602;48.922;2.414;2023-07-31T06:27:24;18.95;71.14
77100;SHT31;66602;48.922;2.414;2023-07-31T06:29:49;18.99;71.36
77100;SHT31;66602;48.922;2.414;2023-07-31T06:32:15;19.03;71.12
77100;SHT31;66602;48.922;2.414;2023-07-31T06:34:40;19.10;71.19
77100;SHT31;66602;48.922;2.414;2023-07-31T06:37:06;19.09;71.02
77100;SHT31;66602;48.922;2.414;2023-07-31T06:39:31;19.09;71.27
77100;SHT31;66602;48.922;2.414;2023-07-31T06:41:57;19.10;71.42
77100;SHT31;66602;48.922;2.414;2023-07-31T06:44:22;19.00;71.65
77100;SHT31;66602;48.922;2.414;2023-07-31T06:46:48;18.94;71.85
77100;SHT31;66602;48.922;2.414;2023-07-31T06:49:13;18.92;71.68
77100;SHT31;66602;48.922;2.414;2023-07-31T06:51:40;18.86;72.17
77100;SHT31;66602;48.922;2.414;2023-07-31T06:54:07;18.91;72.35
77100;SHT31;66602;48.922;2.414;2023-07-31T06:56:32;18.91;72.29
77100;SHT31;66602;48.922;2.414;2023-07-31T06:58:58;18.91;72.49
77100;SHT31;66602;48.922;2.414;2023-07-31T07:01:23;18.84;72.57
77100;SHT31;66602;48.922;2.414;2023-07-31T07:03:49;18.86;72.62
77100;SHT31;66602;48.922;2.414;2023-07-31T07:06:17;18.98;72.66
77100;SHT31;66602;48.922;2.414;2023-07-31T07:08:43;19.15;71.80
77100;SHT31;66602;48.922;2.414;2023-07-31T07:11:08;19.17;71.93
77100;SHT31;66602;48.922;2.414;2023-07-31T07:13:34;19.26;71.58
77100;SHT31;66602;48.922;2.414;2023-07-31T07:15:59;19.41;71.17
77100;SHT31;66602;48.922;2.414;2023-07-31T07:18:25;19.60;70.27
77100;SHT31;66602;48.922;2.414;2023-07-31T07:20:52;19.68;70.53
77100;SHT31;66602;48.922;2.414;2023-07-31T07:23:19;19.84;69.78
77100;SHT31;66602;48.922;2.414;2023-07-31T07:25:45;19.84;69.79
77100;SHT31;66602;48.922;2.414;2023-07-31T07:28:11;19.73;69.98
77100;SHT31;66602;48.922;2.414;2023-07-31T07:30:37;19.70;70.28
77100;SHT31;66602;48.922;2.414;2023-07-31T07:33:02;19.78;70.52
77100;SHT31;66602;48.922;2.414;2023-07-31T07:35:28;19.81;69.73
77100;SHT31;66602;48.922;2.414;2023-07-31T07:37:54;19.95;69.65
77100;SHT31;66602;48.922;2.414;2023-07-31T07:40:20;20.11;69.25
77100;SHT31;66602;48.922;2.414;2023-07-31T07:42:46;20.37;68.62
77100;SHT31;66602;48.922;2.414;2023-07-31T07:45:12;20.42;67.85
77100;SHT31;66602;48.922;2.414;2023-07-31T07:47:40;20.28;67.98
77100;SHT31;66602;48.922;2.414;2023-07-31T07:50:06;20.46;67.56
77100;SHT31;66602;48.922;2.414;2023-07-31T07:52:31;21.01;66.27
77100;SHT31;66602;48.922;2.414;2023-07-31T07:54:57;22.18;62.14
77100;SHT31;66602;48.922;2.414;2023-07-31T07:57:22;23.03;59.11
77100;SHT31;66602;48.922;2.414;2023-07-31T07:59:48;22.90;59.38
77100;SHT31;66602;48.922;2.414;2023-07-31T08:02:13;22.27;61.37
77100;SHT31;66602;48.922;2.414;2023-07-31T08:04:39;21.59;63.38
77100;SHT31;66602;48.922;2.414;2023-07-31T08:07:05;21.01;65.42
77100;SHT31;66602;48.922;2.414;2023-07-31T08:09:30;20.93;65.63
77100;SHT31;66602;48.922;2.414;2023-07-31T08:11:56;20.79;65.89
77100;SHT31;66602;48.922;2.414;2023-07-31T08:14:27;20.62;66.43
77100;SHT31;66602;48.922;2.414;2023-07-31T08:16:52;20.59;66.32
77100;SHT31;66602;48.922;2.414;2023-07-31T08:19:18;20.57;66.33
77100;SHT31;66602;48.922;2.414;2023-07-31T08:21:43;20.64;66.22
77100;SHT31;66602;48.922;2.414;2023-07-31T08:24:09;20.52;66.98
77100;SHT31;66602;48.922;2.414;2023-07-31T08:26:34;20.60;66.22
77100;SHT31;66602;48.922;2.414;2023-07-31T08:29:00;21.07;65.54
77100;SHT31;66602;48.922;2.414;2023-07-31T08:31:26;22.54;60.65
77100;SHT31;66602;48.922;2.414;2023-07-31T08:33:52;23.88;56.24
77100;SHT31;66602;48.922;2.414;2023-07-31T08:36:19;25.78;52.49
77100;SHT31;66602;48.922;2.414;2023-07-31T08:38:45;25.85;50.52
77100;SHT31;66602;48.922;2.414;2023-07-31T08:41:11;24.35;54.11
77100;SHT31;66602;48.922;2.414;2023-07-31T08:43:39;23.36;57.01
77100;SHT31;66602;48.922;2.414;2023-07-31T08:46:04;23.22;57.49
77100;SHT31;66602;48.922;2.414;2023-07-31T08:48:31;23.01;58.49
77100;SHT31;66602;48.922;2.414;2023-07-31T08:50:57;22.21;60.38
77100;SHT31;66602;48.922;2.414;2023-07-31T08:53:22;21.58;62.12
77100;SHT31;66602;48.922;2.414;2023-07-31T08:55:48;21.59;62.22
77100;SHT31;66602;48.922;2.414;2023-07-31T08:58:14;21.59;62.17
77100;SHT31;66602;48.922;2.414;2023-07-31T09:00:41;21.83;61.75
77100;SHT31;66602;48.922;2.414;2023-07-31T09:03:13;21.79;62.25
77100;SHT31;66602;48.922;2.414;2023-07-31T09:05:42;21.97;61.70
77100;SHT31;66602;48.922;2.414;2023-07-31T09:08:09;22.30;60.65
77100;SHT31;66602;48.922;2.414;2023-07-31T09:10:35;22.68;59.74
77100;SHT31;66602;48.922;2.414;2023-07-31T09:13:02;22.29;61.08
77100;SHT31;66602;48.922;2.414;2023-07-31T09:15:28;21.88;62.17
77100;SHT31;66602;48.922;2.414;2023-07-31T09:18:00;21.55;63.16
77100;SHT31;66602;48.922;2.414;2023-07-31T09:20:26;21.30;63.90
77100;SHT31;66602;48.922;2.414;2023-07-31T09:22:52;21.49;64.38
77100;SHT31;66602;48.922;2.414;2023-07-31T09:27:54;21.44;63.90
77100;SHT31;66602;48.922;2.414;2023-07-31T09:30:20;21.42;64.49
77100;SHT31;66602;48.922;2.414;2023-07-31T09:32:47;21.63;64.36
77100;SHT31;66602;48.922;2.414;2023-07-31T09:37:42;21.28;64.72
77100;SHT31;66602;48.922;2.414;2023-07-31T09:40:08;21.03;65.51
77100;SHT31;66602;48.922;2.414;2023-07-31T09:42:34;20.64;66.90
77100;SHT31;66602;48.922;2.414;2023-07-31T09:45:09;20.28;70.24
77100;SHT31;66602;48.922;2.414;2023-07-31T09:47:35;19.79;72.62
77100;SHT31;66602;48.922;2.414;2023-07-31T09:50:01;19.57;73.00
77100;SHT31;66602;48.922;2.414;2023-07-31T09:52:26;19.54;73.97
77100;SHT31;66602;48.922;2.414;2023-07-31T09:54:55;19.60;72.74
77100;SHT31;66602;48.922;2.414;2023-07-31T09:57:21;19.63;71.99
77100;SHT31;66602;48.922;2.414;2023-07-31T09:59:48;19.79;71.95
77100;SHT31;66602;48.922;2.414;2023-07-31T10:02:21;19.88;71.52
77100;SHT31;66602;48.922;2.414;2023-07-31T10:04:49;19.92;71.40
77100;SHT31;66602;48.922;2.414;2023-07-31T10:07:17;20.01;71.68
77100;SHT31;66602;48.922;2.414;2023-07-31T10:09:44;19.96;71.35
77100;SHT31;66602;48.922;2.414;2023-07-31T10:12:12;19.95;71.55
77100;SHT31;66602;48.922;2.414;2023-07-31T10:14:41;19.89;72.76
77100;SHT31;66602;48.922;2.414;2023-07-31T10:17:08;19.60;75.22
77100;SHT31;66602;48.922;2.414;2023-07-31T10:19:34;19.26;76.73
77100;SHT31;66602;48.922;2.414;2023-07-31T10:22:00;19.07;76.83
77100;SHT31;66602;48.922;2.414;2023-07-31T10:24:28;18.95;77.25
77100;SHT31;66602;48.922;2.414;2023-07-31T10:26:57;18.84;78.21
77100;SHT31;66602;48.922;2.414;2023-07-31T10:29:24;18.75;79.27
77100;SHT31;66602;48.922;2.414;2023-07-31T10:31:50;18.72;80.35
77100;SHT31;66602;48.922;2.414;2023-07-31T10:34:16;18.75;79.40
77100;SHT31;66602;48.922;2.414;2023-07-31T10:36:42;18.98;79.90
77100;SHT31;66602;48.922;2.414;2023-07-31T10:39:34;19.05;80.07
77100;SHT31;66602;48.922;2.414;2023-07-31T10:42:12;19.05;80.65
77100;SHT31;66602;48.922;2.414;2023-07-31T10:44:43;18.89;82.39
77100;SHT31;66602;48.922;2.414;2023-07-31T10:47:08;18.78;81.82
77100;SHT31;66602;48.922;2.414;2023-07-31T10:49:34;18.73;82.25
77100;SHT31;66602;48.922;2.414;2023-07-31T10:52:03;18.79;80.78
77100;SHT31;66602;48.922;2.414;2023-07-31T10:54:28;18.91;81.94
77100;SHT31;66602;48.922;2.414;2023-07-31T10:56:54;19.12;81.93
77100;SHT31;66602;48.922;2.414;2023-07-31T10:59:19;19.43;80.10
77100;SHT31;66602;48.922;2.414;2023-07-31T11:01:53;19.50;79.73
77100;SHT31;66602;48.922;2.414;2023-07-31T11:04:25;19.37;79.04
77100;SHT31;66602;48.922;2.414;2023-07-31T11:07:01;19.33;78.77
77100;SHT31;66602;48.922;2.414;2023-07-31T11:09:32;19.16;78.97
77100;SHT31;66602;48.922;2.414;2023-07-31T11:11:59;19.17;79.41
77100;SHT31;66602;48.922;2.414;2023-07-31T11:14:25;19.15;80.91
77100;SHT31;66602;48.922;2.414;2023-07-31T11:16:50;19.19;81.29
77100;SHT31;66602;48.922;2.414;2023-07-31T11:19:23;19.06;81.61
77100;SHT31;66602;48.922;2.414;2023-07-31T11:21:49;18.89;81.26
77100;SHT31;66602;48.922;2.414;2023-07-31T11:24:14;18.64;82.73
77100;SHT31;66602;48.922;2.414;2023-07-31T11:26:50;18.52;85.27
77100;SHT31;66602;48.922;2.414;2023-07-31T11:29:17;18.65;85.82
77100;SHT31;66602;48.922;2.414;2023-07-31T11:31:43;18.71;85.51
77100;SHT31;66602;48.922;2.414;2023-07-31T11:34:09;18.85;84.66
77100;SHT31;66602;48.922;2.414;2023-07-31T11:36:34;18.92;84.28
77100;SHT31;66602;48.922;2.414;2023-07-31T11:39:08;19.06;83.80
77100;SHT31;66602;48.922;2.414;2023-07-31T11:41:34;19.17;84.00
77100;SHT31;66602;48.922;2.414;2023-07-31T11:44:00;19.13;83.60
77100;SHT31;66602;48.922;2.414;2023-07-31T11:46:26;19.09;84.44
77100;SHT31;66602;48.922;2.414;2023-07-31T11:48:51;19.02;84.51
77100;SHT31;66602;48.922;2.414;2023-07-31T11:51:20;19.10;84.28
77100;SHT31;66602;48.922;2.414;2023-07-31T11:53:52;19.07;83.45
77100;SHT31;66602;48.922;2.414;2023-07-31T11:56:20;19.09;83.14
77100;SHT31;66602;48.922;2.414;2023-07-31T11:59:06;19.24;83.00
77100;SHT31;66602;48.922;2.414;2023-07-31T12:01:33;19.31;82.66
77100;SHT31;66602;48.922;2.414;2023-07-31T12:03:59;19.24;82.82
77100;SHT31;66602;48.922;2.414;2023-07-31T12:06:37;19.22;82.75
77100;SHT31;66602;48.922;2.414;2023-07-31T12:09:05;19.16;81.81
77100;SHT31;66602;48.922;2.414;2023-07-31T12:11:31;19.19;82.75
77100;SHT31;66602;48.922;2.414;2023-07-31T12:13:57;19.24;81.99
77100;SHT31;66602;48.922;2.414;2023-07-31T12:16:26;19.33;82.55
77100;SHT31;66602;48.922;2.414;2023-07-31T12:18:52;19.31;83.17
77100;SHT31;66602;48.922;2.414;2023-07-31T12:21:19;19.24;82.58
77100;SHT31;66602;48.922;2.414;2023-07-31T12:23:44;19.17;82.70
77100;SHT31;66602;48.922;2.414;2023-07-31T12:26:15;19.09;83.00
77100;SHT31;66602;48.922;2.414;2023-07-31T12:28:42;19.09;82.54
77100;SHT31;66602;48.922;2.414;2023-07-31T12:31:10;19.15;82.40
77100;SHT31;66602;48.922;2.414;2023-07-31T12:33:38;19.13;83.05
77100;SHT31;66602;48.922;2.414;2023-07-31T12:36:08;19.03;83.25
77100;SHT31;66602;48.922;2.414;2023-07-31T12:38:33;18.82;84.45
77100;SHT31;66602;48.922;2.414;2023-07-31T12:40:59;18.69;84.77
77100;SHT31;66602;48.922;2.414;2023-07-31T12:43:25;18.61;85.26
77100;SHT31;66602;48.922;2.414;2023-07-31T12:45:50;18.61;85.42
77100;SHT31;66602;48.922;2.414;2023-07-31T12:48:16;18.64;85.14
77100;SHT31;66602;48.922;2.414;2023-07-31T12:50:41;18.73;84.25
77100;SHT31;66602;48.922;2.414;2023-07-31T12:53:07;18.95;82.63
77100;SHT31;66602;48.922;2.414;2023-07-31T12:55:32;19.22;81.58
77100;SHT31;66602;48.922;2.414;2023-07-31T12:58:02;19.58;81.91
77100;SHT31;66602;48.922;2.414;2023-07-31T13:00:28;19.89;80.54
77100;SHT31;66602;48.922;2.414;2023-07-31T13:02:53;20.02;79.22
77100;SHT31;66602;48.922;2.414;2023-07-31T13:05:20;20.12;78.31
77100;SHT31;66602;48.922;2.414;2023-07-31T13:07:46;20.21;78.43
77100;SHT31;66602;48.922;2.414;2023-07-31T13:10:12;20.18;78.83
77100;SHT31;66602;48.922;2.414;2023-07-31T13:12:37;20.22;77.33
77100;SHT31;66602;48.922;2.414;2023-07-31T13:15:06;20.28;76.99
77100;SHT31;66602;48.922;2.414;2023-07-31T13:17:32;20.32;77.19
77100;SHT31;66602;48.922;2.414;2023-07-31T13:19:57;20.37;76.67
77100;SHT31;66602;48.922;2.414;2023-07-31T13:22:23;20.45;76.39
77100;SHT31;66602;48.922;2.414;2023-07-31T13:24:48;20.52;77.06
77100;SHT31;66602;48.922;2.414;2023-07-31T13:27:14;20.55;75.90
77100;SHT31;66602;48.922;2.414;2023-07-31T13:29:44;20.49;75.88
77100;SHT31;66602;48.922;2.414;2023-07-31T13:32:09;20.57;75.56
77100;SHT31;66602;48.922;2.414;2023-07-31T13:34:35;20.50;75.97
77100;SHT31;66602;48.922;2.414;2023-07-31T13:37:00;20.36;76.52
77100;SHT31;66602;48.922;2.414;2023-07-31T13:39:26;20.28;75.36
77100;SHT31;66602;48.922;2.414;2023-07-31T13:41:51;20.22;76.20
77100;SHT31;66602;48.922;2.414;2023-07-31T13:44:17;20.11;75.96
77100;SHT31;66602;48.922;2.414;2023-07-31T13:46:42;20.08;76.58
77100;SHT31;66602;48.922;2.414;2023-07-31T13:49:08;19.95;78.00
77100;SHT31;66602;48.922;2.414;2023-07-31T13:51:33;19.82;78.98
77100;SHT31;66602;48.922;2.414;2023-07-31T13:53:59;19.58;80.92
77100;SHT31;66602;48.922;2.414;2023-07-31T13:56:24;19.27;84.25
77100;SHT31;66602;48.922;2.414;2023-07-31T13:58:50;18.99;85.48
77100;SHT31;66602;48.922;2.414;2023-07-31T14:01:15;18.76;87.69
77100;SHT31;66602;48.922;2.414;2023-07-31T14:03:41;18.57;88.36
77100;SHT31;66602;48.922;2.414;2023-07-31T14:06:07;18.45;89.16
77100;SHT31;66602;48.922;2.414;2023-07-31T14:08:32;18.41;89.21
77100;SHT31;66602;48.922;2.414;2023-07-31T14:10:58;18.48;90.25
77100;SHT31;66602;48.922;2.414;2023-07-31T14:13:23;18.59;89.56
77100;SHT31;66602;48.922;2.414;2023-07-31T14:15:49;18.73;89.75
77100;SHT31;66602;48.922;2.414;2023-07-31T14:18:14;18.86;89.98
77100;SHT31;66602;48.922;2.414;2023-07-31T14:20:39;19.05;90.20
77100;SHT31;66602;48.922;2.414;2023-07-31T14:23:05;19.15;90.22
77100;SHT31;66602;48.922;2.414;2023-07-31T14:25:30;19.16;88.56
77100;SHT31;66602;48.922;2.414;2023-07-31T14:27:56;18.96;87.68
77100;SHT31;66602;48.922;2.414;2023-07-31T14:30:21;18.82;88.87
77100;SHT31;66602;48.922;2.414;2023-07-31T14:32:47;18.76;89.52
77100;SHT31;66602;48.922;2.414;2023-07-31T14:35:12;18.81;89.59
77100;SHT31;66602;48.922;2.414;2023-07-31T14:37:43;18.78;89.86
77100;SHT31;66602;48.922;2.414;2023-07-31T14:40:10;18.81;88.72
77100;SHT31;66602;48.922;2.414;2023-07-31T14:42:36;18.81;87.83
77100;SHT31;66602;48.922;2.414;2023-07-31T14:45:03;18.95;88.27
77100;SHT31;66602;48.922;2.414;2023-07-31T14:47:29;19.02;87.73
77100;SHT31;66602;48.922;2.414;2023-07-31T14:49:56;19.07;88.31
77100;SHT31;66602;48.922;2.414;2023-07-31T14:52:22;19.13;87.03
77100;SHT31;66602;48.922;2.414;2023-07-31T14:54:47;19.07;88.02
77100;SHT31;66602;48.922;2.414;2023-07-31T14:57:13;19.09;88.60
77100;SHT31;66602;48.922;2.414;2023-07-31T14:59:38;19.30;88.64
77100;SHT31;66602;48.922;2.414;2023-07-31T15:02:04;19.19;87.17
77100;SHT31;66602;48.922;2.414;2023-07-31T15:04:30;19.22;87.94
77100;SHT31;66602;48.922;2.414;2023-07-31T15:06:55;19.13;87.28
77100;SHT31;66602;48.922;2.414;2023-07-31T15:09:21;19.05;87.78
77100;SHT31;66602;48.922;2.414;2023-07-31T15:11:47;19.00;88.23
77100;SHT31;66602;48.922;2.414;2023-07-31T15:14:12;18.98;86.63
77100;SHT31;66602;48.922;2.414;2023-07-31T15:16:38;18.92;88.21
77100;SHT31;66602;48.922;2.414;2023-07-31T15:19:03;18.96;89.00
77100;SHT31;66602;48.922;2.414;2023-07-31T15:21:29;18.98;88.89
77100;SHT31;66602;48.922;2.414;2023-07-31T15:23:55;18.96;88.56
77100;SHT31;66602;48.922;2.414;2023-07-31T15:26:20;19.05;89.50
77100;SHT31;66602;48.922;2.414;2023-07-31T15:28:50;19.15;89.07
77100;SHT31;66602;48.922;2.414;2023-07-31T15:31:20;19.09;88.35
77100;SHT31;66602;48.922;2.414;2023-07-31T15:33:47;19.09;89.15
77100;SHT31;66602;48.922;2.414;2023-07-31T15:36:13;19.12;86.83
77100;SHT31;66602;48.922;2.414;2023-07-31T15:38:39;19.02;88.05